»·PEaware :: N2298W KBUR-KSBD

N2298W :: KBUR-KSBD

FLIGHT INFORMATION

Flight Status: Arrived
Operator: Privately registered:
United States
More flights under this callsign
Pilot: Louis G. (16930)
Aircraft: CESSNA 172 SKYHAWK
(C172)
More flights by this aircraft type
Origin: KBUR Bob Hope-Burbank
United States
Destination: KSBD San Bernardino Intl
United States
More flights between these airports :: More routes between these airports
Route: +
File this flight plan on PilotEdge
Remarks:
Altitude:
(Current/Filed)
5,500ft
Speed:
(Current/Filed)
0kts
Departed: 02-Sep-18 02:27 PM
Arrived: 02-Sep-18 03:04 PM
Distance/Time
Traveled:
57nm/0:37
Distance/Time
To Go:
Arrived

Flight Plot

Page will automatically refresh every two minutes.


Map Options




Map Legend


Flown Route
Filed Route
Departure Airport
Arrival Airport
Navaid (VOR, NDB)
Fix

Horizontal Profiles

Position Reports

Time Latitude Longitude Heading Altitude Ground
Speed
02-Sep-18 14:12 34.196338 -118.367565 358 721ft 0kts
02-Sep-18 14:14 34.196338 -118.367565 358 721ft 0kts
02-Sep-18 14:14 34.196338 -118.367565 358 721ft 0kts
02-Sep-18 14:15 34.196338 -118.367565 358 721ft 0kts
02-Sep-18 14:16 34.196338 -118.367565 358 721ft 0kts
02-Sep-18 14:17 34.196338 -118.367565 358 721ft 0kts
02-Sep-18 14:18 34.196338 -118.367565 358 721ft 0kts
02-Sep-18 14:19 34.196338 -118.367565 358 721ft 0kts
02-Sep-18 14:20 34.196338 -118.367565 358 721ft 0kts
02-Sep-18 14:21 34.196338 -118.367565 358 721ft 0kts
02-Sep-18 14:22 34.196338 -118.367565 358 721ft 0kts
02-Sep-18 14:23 34.196338 -118.367565 358 721ft 0kts
02-Sep-18 14:24 34.196338 -118.367565 358 721ft 0kts
02-Sep-18 14:25 34.196338 -118.367565 358 721ft 0kts
02-Sep-18 14:26 34.196926 -118.368115 270 723ft 9kts
02-Sep-18 14:27 34.197082 -118.369029 320 724ft 0kts
02-Sep-18 14:28 34.197753 -118.363235 94 730ft 76kts
02-Sep-18 14:29 34.199572 -118.336332 85 1726ft 83kts
02-Sep-18 14:30 34.204685 -118.308953 89 2675ft 84kts
02-Sep-18 14:31 34.205874 -118.279902 87 3516ft 88kts
02-Sep-18 14:32 34.208312 -118.250617 86 4438ft 88kts
02-Sep-18 14:33 34.210580 -118.221476 94 5325ft 86kts
02-Sep-18 14:34 34.209930 -118.186477 96 5551ft 116kts
02-Sep-18 14:35 34.203877 -118.149859 134 5299ft 119kts
02-Sep-18 14:36 34.181723 -118.124467 134 5380ft 99kts
02-Sep-18 14:37 34.166714 -118.097721 121 5562ft 97kts
02-Sep-18 14:38 34.149233 -118.072045 130 5575ft 105kts
02-Sep-18 14:39 34.138492 -118.039703 102 5609ft 106kts
02-Sep-18 14:40 34.132778 -118.004493 105 5611ft 107kts
02-Sep-18 14:41 34.126462 -117.969084 105 5617ft 108kts
02-Sep-18 14:42 34.120199 -117.933443 105 5614ft 109kts
02-Sep-18 14:43 34.112317 -117.898315 113 5627ft 108kts
02-Sep-18 14:44 34.102049 -117.863866 113 5633ft 109kts
02-Sep-18 14:45 34.091771 -117.829194 113 5636ft 110kts
02-Sep-18 14:46 34.081390 -117.794341 113 5631ft 110kts
02-Sep-18 14:47 34.079217 -117.757819 91 5625ft 113kts
02-Sep-18 14:48 34.079089 -117.719769 92 5620ft 113kts
02-Sep-18 14:49 34.078832 -117.681821 93 5614ft 113kts
02-Sep-18 14:50 34.079213 -117.643885 93 5608ft 113kts
02-Sep-18 14:51 34.079038 -117.605978 93 5602ft 113kts
02-Sep-18 14:52 34.078450 -117.568132 92 5603ft 114kts
02-Sep-18 14:53 34.075511 -117.530094 91 5605ft 114kts
02-Sep-18 14:54 34.073149 -117.494595 91 5474ft 101kts
02-Sep-18 14:55 34.070994 -117.463585 91 5469ft 85kts
02-Sep-18 14:56 34.069471 -117.431391 86 4918ft 104kts
02-Sep-18 14:57 34.070166 -117.395768 86 4322ft 107kts
02-Sep-18 14:58 34.071217 -117.359515 86 3724ft 108kts
02-Sep-18 14:59 34.071339 -117.323121 94 3124ft 109kts
02-Sep-18 15:00 34.083247 -117.292638 43 2539ft 101kts
02-Sep-18 15:01 34.098655 -117.264358 59 2181ft 101kts
02-Sep-18 15:02 34.110022 -117.233113 67 2118ft 102kts
02-Sep-18 15:03 34.116246 -117.205234 102 1961ft 81kts
02-Sep-18 15:04 34.103329 -117.206744 255 1446ft 70kts
02-Sep-18 15:05 34.098122 -117.225317 250 1142ft 26kts

Navigation Log

Ident Type
Flight plan parsing failed, navigation log unavailable